createdAt,value
2023-05-09T00:02:04.403Z,2.67
2023-05-09T00:07:57.478Z,2.40
2023-05-09T00:13:52.586Z,2.37
2023-05-09T00:19:45.702Z,1.87
2023-05-09T00:25:39.146Z,2.47
2023-05-09T00:31:34.010Z,2.20
2023-05-09T00:38:10.854Z,2.20
2023-05-09T00:44:03.978Z,2.47
2023-05-09T00:50:00.133Z,2.60
2023-05-09T00:55:56.741Z,2.70
2023-05-09T01:01:49.781Z,2.70
2023-05-09T01:07:48.730Z,2.97
2023-05-09T01:13:53.862Z,2.60
2023-05-09T01:19:58.891Z,2.53
2023-05-09T01:26:03.095Z,3.17
2023-05-09T01:31:58.802Z,2.93
2023-05-09T01:37:52.805Z,2.83
2023-05-09T01:43:48.251Z,3.30
2023-05-09T01:49:43.826Z,3.03
2023-05-09T01:55:38.764Z,2.90
2023-05-09T02:01:32.380Z,2.70
2023-05-09T02:07:28.000Z,2.87
2023-05-09T02:13:21.873Z,3.07
2023-05-09T02:22:59.549Z,3.20
2023-05-09T02:28:53.206Z,3.20
2023-05-09T02:34:47.591Z,3.23
2023-05-09T02:40:44.238Z,3.30
2023-05-09T02:46:37.604Z,3.37
2023-05-09T02:52:30.625Z,3.30
2023-05-09T02:58:25.418Z,3.43
2023-05-09T03:04:19.732Z,3.20
2023-05-09T03:10:13.417Z,3.37
2023-05-09T03:16:09.886Z,3.30
2023-05-09T03:22:03.246Z,4.30
2023-05-09T03:27:59.878Z,3.90
2023-05-09T03:33:54.404Z,4.00
2023-05-09T03:39:48.598Z,4.30
2023-05-09T03:45:41.939Z,3.87
2023-05-09T03:51:41.330Z,3.70
2023-05-09T03:57:39.258Z,3.80
2023-05-09T04:03:32.946Z,4.33
2023-05-09T04:09:29.224Z,3.97
2023-05-09T04:15:22.284Z,4.30
2023-05-09T04:21:15.941Z,3.50
2023-05-09T04:27:12.768Z,3.60
2023-05-09T04:33:06.490Z,5.00
2023-05-09T04:38:59.998Z,4.00
2023-05-09T04:44:56.021Z,3.87
2023-05-09T04:50:49.400Z,4.30
2023-05-09T04:56:42.366Z,4.60
2023-05-09T05:02:37.025Z,4.40
2023-05-09T05:08:31.126Z,4.30
2023-05-09T05:14:24.680Z,4.77
2023-05-09T05:20:19.459Z,4.33
2023-05-09T05:26:13.012Z,3.73
2023-05-09T05:32:06.513Z,4.50
2023-05-09T05:38:01.720Z,4.17
2023-05-09T05:43:55.321Z,4.03
2023-05-09T05:49:48.355Z,4.10
2023-05-09T05:55:43.154Z,3.93
2023-05-09T06:01:36.972Z,4.80
2023-05-09T06:07:30.607Z,4.70
2023-05-09T06:13:25.350Z,4.67
2023-05-09T06:19:23.952Z,4.40
2023-05-09T06:25:17.422Z,4.10
2023-05-09T06:31:13.139Z,4.40
2023-05-09T06:37:06.392Z,4.47
2023-05-09T06:42:59.345Z,4.03
2023-05-09T06:48:53.729Z,4.97
2023-05-09T06:54:46.857Z,4.60
2023-05-09T07:00:39.872Z,4.50
2023-05-09T07:06:34.294Z,4.10
2023-05-09T07:12:27.318Z,4.13
2023-05-09T07:18:20.296Z,4.10
2023-05-09T07:24:14.649Z,3.83
2023-05-09T07:30:09.196Z,3.87
2023-05-09T07:36:02.618Z,4.00
2023-05-09T07:41:57.157Z,4.03
2023-05-09T07:47:50.191Z,3.70
2023-05-09T07:53:43.466Z,3.70
2023-05-09T07:59:37.880Z,3.73
2023-05-09T08:05:30.890Z,3.80
2023-05-09T08:11:23.993Z,3.70
2023-05-09T08:17:18.570Z,3.80
2023-05-09T08:23:11.782Z,3.50
2023-05-09T08:29:05.010Z,3.30
2023-05-09T08:34:59.571Z,3.50
2023-05-09T08:40:52.660Z,3.30
2023-05-09T08:46:46.096Z,3.50
2023-05-09T08:52:40.957Z,3.57
2023-05-09T08:58:35.351Z,3.37
2023-05-09T09:04:28.453Z,3.30
2023-05-09T09:10:25.762Z,3.50
2023-05-09T09:16:21.603Z,2.47
2023-05-09T09:22:18.148Z,3.10
2023-05-09T09:28:12.654Z,2.90
2023-05-09T09:34:06.021Z,2.90
2023-05-09T09:39:58.980Z,2.50
2023-05-09T09:45:56.033Z,2.50
2023-05-09T09:51:52.731Z,2.63
2023-05-09T09:57:46.286Z,2.43
2023-05-09T10:03:42.068Z,2.70
2023-05-09T10:09:37.897Z,2.60
2023-05-09T10:15:41.481Z,2.40
2023-05-09T10:21:41.872Z,2.30
2023-05-09T10:27:37.535Z,2.30
2023-05-09T10:33:39.057Z,2.40
2023-05-09T10:39:34.198Z,2.60
2023-05-09T10:45:28.170Z,2.00
2023-05-09T10:51:21.760Z,2.53
2023-05-09T10:57:20.935Z,2.50
2023-05-09T11:03:14.299Z,2.33
2023-05-09T11:09:27.300Z,2.00
2023-05-09T11:15:22.639Z,2.30
2023-05-09T11:21:16.192Z,2.90
2023-05-09T11:27:16.825Z,2.10
2023-05-09T11:33:25.617Z,2.10
2023-05-09T11:39:26.396Z,2.43
2023-05-09T11:45:19.595Z,2.73
2023-05-09T11:53:57.302Z,1.97
2023-05-09T11:59:50.406Z,2.60
2023-05-09T12:05:43.515Z,2.33
2023-05-09T12:11:38.190Z,2.77
2023-05-09T12:17:31.395Z,2.23
2023-05-09T12:23:24.502Z,2.47
2023-05-09T12:29:19.571Z,2.33
2023-05-09T12:35:12.764Z,2.30
2023-05-09T12:41:09.234Z,2.87
2023-05-09T12:47:08.003Z,2.63
2023-05-09T12:53:04.471Z,2.60
2023-05-09T12:58:57.732Z,2.10
2023-05-09T13:04:52.098Z,2.40
2023-05-09T13:10:45.530Z,2.57
2023-05-09T13:16:38.625Z,2.70
2023-05-09T13:22:33.263Z,2.80
2023-05-09T13:28:26.482Z,2.43
2023-05-09T13:34:19.556Z,2.30
2023-05-09T13:40:15.249Z,2.60
2023-05-09T13:46:08.517Z,2.40
2023-05-09T13:52:01.605Z,2.27
2023-05-09T13:57:56.327Z,2.40
2023-05-09T14:03:49.698Z,2.30
2023-05-09T14:09:42.754Z,2.10
2023-05-09T14:15:37.496Z,2.63
2023-05-09T14:21:30.988Z,2.77
2023-05-09T14:27:24.180Z,2.60
2023-05-09T14:33:18.868Z,2.10
2023-05-09T14:39:11.978Z,2.27
2023-05-09T14:45:07.175Z,2.20
2023-05-09T14:51:02.080Z,2.40
2023-05-09T14:56:55.145Z,2.67
2023-05-09T15:02:48.472Z,2.13
2023-05-09T15:08:42.929Z,2.07
2023-05-09T15:14:36.163Z,2.27
2023-05-09T15:20:29.312Z,2.00
2023-05-09T15:26:24.145Z,2.10
2023-05-09T15:32:17.245Z,2.50
2023-05-09T15:38:12.132Z,2.00
2023-05-09T15:44:07.454Z,2.20
2023-05-09T15:50:00.607Z,1.93
2023-05-09T15:55:54.004Z,1.90
2023-05-09T16:01:48.775Z,1.90
2023-05-09T16:07:44.903Z,2.20
2023-05-09T16:13:38.098Z,2.10
2023-05-09T16:19:35.835Z,2.07
2023-05-09T16:25:29.447Z,2.20
2023-05-09T16:31:26.654Z,2.10
2023-05-09T16:37:21.557Z,1.83
2023-05-09T16:43:16.562Z,1.63
2023-05-09T16:49:09.613Z,2.10
2023-05-09T16:55:04.226Z,1.87
2023-05-09T17:00:58.262Z,1.73
2023-05-09T17:06:52.057Z,1.90
2023-05-09T17:12:46.741Z,1.80
2023-05-09T17:18:39.983Z,1.83
2023-05-09T17:24:33.437Z,1.53
2023-05-09T17:30:28.269Z,1.70
2023-05-09T17:36:21.588Z,2.00
2023-05-09T17:42:14.763Z,1.80
2023-05-09T17:48:09.300Z,1.60
2023-05-09T17:54:02.394Z,2.53
2023-05-09T17:59:55.836Z,2.00
2023-05-09T18:05:50.258Z,1.60
2023-05-09T18:11:43.592Z,1.77
2023-05-09T18:17:36.668Z,1.60
2023-05-09T18:23:31.291Z,1.60
2023-05-09T18:29:24.965Z,2.30
2023-05-09T18:35:18.382Z,2.23
2023-05-09T18:41:13.878Z,1.97
2023-05-09T18:47:07.296Z,1.80
2023-05-09T18:53:00.486Z,2.00
2023-05-09T18:58:55.081Z,2.13
2023-05-09T19:04:50.592Z,2.20
2023-05-09T19:10:44.869Z,1.87
2023-05-09T19:16:39.536Z,2.50
2023-05-09T19:22:32.771Z,2.20
2023-05-09T19:28:26.098Z,2.30
2023-05-09T19:34:20.574Z,2.20
2023-05-09T19:40:14.297Z,1.80
2023-05-09T19:46:07.799Z,2.40
2023-05-09T19:52:02.566Z,1.90
2023-05-09T19:57:55.758Z,1.80
2023-05-09T20:07:31.758Z,3.37
2023-05-09T20:13:25.104Z,2.13
2023-05-09T20:19:18.649Z,2.17
2023-05-09T20:25:13.573Z,2.40
2023-05-09T20:31:06.830Z,2.60
2023-05-09T20:37:00.073Z,2.67
2023-05-09T20:42:54.672Z,2.27
2023-05-09T20:48:48.473Z,1.83
2023-05-09T20:54:41.737Z,3.10
2023-05-09T21:00:36.443Z,2.10
2023-05-09T21:06:30.020Z,2.43
2023-05-09T21:12:23.276Z,2.10
2023-05-09T21:18:17.855Z,2.20
2023-05-09T21:24:11.552Z,2.30
2023-05-09T21:30:05.123Z,2.20
2023-05-09T21:35:59.809Z,2.50
2023-05-09T21:41:53.065Z,2.63
2023-05-09T21:47:46.367Z,2.50
2023-05-09T21:53:41.064Z,2.20
2023-05-09T21:59:34.359Z,2.90
2023-05-09T22:05:27.528Z,3.00
2023-05-09T22:11:22.490Z,3.27
2023-05-09T22:17:15.652Z,2.77
2023-05-09T22:23:08.638Z,3.70
2023-05-09T22:29:03.078Z,3.50
2023-05-09T22:34:56.684Z,3.20
2023-05-09T22:40:49.946Z,2.73
2023-05-09T22:46:44.619Z,3.30
2023-05-09T22:52:37.620Z,3.10
2023-05-09T22:58:30.643Z,3.60
2023-05-09T23:04:25.265Z,3.47
2023-05-09T23:10:18.622Z,3.00
2023-05-09T23:16:11.854Z,3.63
2023-05-09T23:22:06.469Z,3.33
2023-05-09T23:27:59.749Z,3.40
2023-05-09T23:33:52.959Z,3.00
2023-05-09T23:39:47.505Z,3.80
2023-05-09T23:45:40.799Z,3.40
2023-05-09T23:51:33.967Z,3.90
2023-05-09T23:57:28.898Z,3.90
